sensor_id;sensor_type;location;lat;lon;timestamp;pressure;altitude;pressure_sealevel;temperature;humidity
77517;BME280;66628;53.946;27.634;2023-01-19T00:00:24;97209.523438;;;20.379999;34.181641
77517;BME280;66628;53.946;27.634;2023-01-19T00:01:24;97215.078125;;;20.389999;34.293945
77517;BME280;66628;53.946;27.634;2023-01-19T00:02:24;97211.625000;;;20.389999;34.182617
77517;BME280;66628;53.946;27.634;2023-01-19T00:03:24;97215.046875;;;20.400000;34.216797
77517;BME280;66628;53.946;27.634;2023-01-19T00:04:24;97221.242188;;;20.389999;34.160156
77517;BME280;66628;53.946;27.634;2023-01-19T00:05:24;97224.781250;;;20.400000;34.226562
77517;BME280;66628;53.946;27.634;2023-01-19T00:06:24;97231.218750;;;20.410000;34.206055
77517;BME280;66628;53.946;27.634;2023-01-19T00:07:24;97223.906250;;;20.400000;34.070312
77517;BME280;66628;53.946;27.634;2023-01-19T00:08:24;97228.992188;;;20.410000;34.083008
77517;BME280;66628;53.946;27.634;2023-01-19T00:09:24;97229.296875;;;20.410000;34.015625
77517;BME280;66628;53.946;27.634;2023-01-19T00:10:24;97232.664062;;;20.420000;33.982422
77517;BME280;66628;53.946;27.634;2023-01-19T00:11:24;97224.835938;;;20.410000;33.814453
77517;BME280;66628;53.946;27.634;2023-01-19T00:12:24;97237.429688;;;20.410000;33.880859
77517;BME280;66628;53.946;27.634;2023-01-19T00:13:24;97226.906250;;;20.420000;33.791992
77517;BME280;66628;53.946;27.634;2023-01-19T00:14:24;97233.109375;;;20.440001;34.365234
77517;BME280;66628;53.946;27.634;2023-01-19T00:15:24;97227.281250;;;20.480000;35.251953
77517;BME280;66628;53.946;27.634;2023-01-19T00:16:24;97237.031250;;;20.480000;34.569336
77517;BME280;66628;53.946;27.634;2023-01-19T00:17:24;97242.757812;;;20.480000;34.547852
77517;BME280;66628;53.946;27.634;2023-01-19T00:18:24;97245.609375;;;20.500000;34.391602
77517;BME280;66628;53.946;27.634;2023-01-19T00:19:24;97247.242188;;;20.510000;34.392578
77517;BME280;66628;53.946;27.634;2023-01-19T00:20:24;97251.000000;;;20.520000;34.415039
77517;BME280;66628;53.946;27.634;2023-01-19T00:21:24;97239.414062;;;20.520000;34.168945
77517;BME280;66628;53.946;27.634;2023-01-19T00:22:24;97243.273438;;;20.540001;34.338867
77517;BME280;66628;53.946;27.634;2023-01-19T00:23:24;97247.390625;;;20.530001;33.980469
77517;BME280;66628;53.946;27.634;2023-01-19T00:24:24;97246.125000;;;20.549999;34.048828
77517;BME280;66628;53.946;27.634;2023-01-19T00:25:24;97246.078125;;;20.559999;34.576172
77517;BME280;66628;53.946;27.634;2023-01-19T00:26:24;97245.398438;;;20.570000;34.588867
77517;BME280;66628;53.946;27.634;2023-01-19T00:27:24;97247.500000;;;20.570000;34.083984
77517;BME280;66628;53.946;27.634;2023-01-19T00:28:24;97254.187500;;;20.590000;34.398438
77517;BME280;66628;53.946;27.634;2023-01-19T00:29:24;97254.796875;;;20.590000;34.623047
77517;BME280;66628;53.946;27.634;2023-01-19T00:30:24;97259.437500;;;20.590000;34.353516
77517;BME280;66628;53.946;27.634;2023-01-19T00:31:24;97261.109375;;;20.600000;34.769531
77517;BME280;66628;53.946;27.634;2023-01-19T00:32:24;97258.179688;;;20.610001;34.903320
77517;BME280;66628;53.946;27.634;2023-01-19T00:33:24;97258.718750;;;20.620001;34.669922
77517;BME280;66628;53.946;27.634;2023-01-19T00:34:24;97259.234375;;;20.629999;34.648438
77517;BME280;66628;53.946;27.634;2023-01-19T00:35:24;97259.562500;;;20.639999;34.357422
77517;BME280;66628;53.946;27.634;2023-01-19T00:36:24;97265.546875;;;20.639999;34.604492
77517;BME280;66628;53.946;27.634;2023-01-19T00:37:24;97265.984375;;;20.660000;34.953125
77517;BME280;66628;53.946;27.634;2023-01-19T00:38:24;97274.093750;;;20.660000;34.729492
77517;BME280;66628;53.946;27.634;2023-01-19T00:39:24;97278.156250;;;20.660000;34.998047
77517;BME280;66628;53.946;27.634;2023-01-19T00:40:24;97284.328125;;;20.670000;34.505859
77517;BME280;66628;53.946;27.634;2023-01-19T00:41:24;97289.484375;;;20.670000;34.663086
77517;BME280;66628;53.946;27.634;2023-01-19T00:42:24;97285.375000;;;20.680000;34.673828
77517;BME280;66628;53.946;27.634;2023-01-19T00:43:24;97282.546875;;;20.690001;34.809570
77517;BME280;66628;53.946;27.634;2023-01-19T00:44:24;97287.617188;;;20.690001;34.630859
77517;BME280;66628;53.946;27.634;2023-01-19T00:45:24;97287.546875;;;20.700001;35.012695
77517;BME280;66628;53.946;27.634;2023-01-19T00:46:24;97287.671875;;;20.709999;34.946289
77517;BME280;66628;53.946;27.634;2023-01-19T00:47:24;97285.132812;;;20.719999;35.070312
77517;BME280;66628;53.946;27.634;2023-01-19T00:48:24;97282.468750;;;20.709999;34.464844
77517;BME280;66628;53.946;27.634;2023-01-19T00:49:27;97291.664062;;;20.730000;34.914062
77517;BME280;66628;53.946;27.634;2023-01-19T00:50:25;97292.578125;;;20.730000;34.981445
77517;BME280;66628;53.946;27.634;2023-01-19T00:51:24;97292.578125;;;20.740000;34.914062
77517;BME280;66628;53.946;27.634;2023-01-19T00:52:24;97297.523438;;;20.740000;34.489258
77517;BME280;66628;53.946;27.634;2023-01-19T00:53:24;97297.750000;;;20.760000;34.558594
77517;BME280;66628;53.946;27.634;2023-01-19T00:54:24;97292.546875;;;20.760000;34.176758
77517;BME280;66628;53.946;27.634;2023-01-19T00:55:24;97292.546875;;;20.760000;34.669922
77517;BME280;66628;53.946;27.634;2023-01-19T00:56:24;97297.726562;;;20.770000;35.050781
77517;BME280;66628;53.946;27.634;2023-01-19T00:57:24;97304.031250;;;20.809999;35.009766
77517;BME280;66628;53.946;27.634;2023-01-19T00:58:24;97308.359375;;;20.799999;34.964844
77517;BME280;66628;53.946;27.634;2023-01-19T00:59:24;97308.070312;;;20.820000;34.919922
77517;BME280;66628;53.946;27.634;2023-01-19T01:00:24;97311.656250;;;20.809999;34.786133
77517;BME280;66628;53.946;27.634;2023-01-19T01:01:24;97311.320312;;;20.840000;34.563477
77517;BME280;66628;53.946;27.634;2023-01-19T01:02:24;97311.203125;;;20.860001;34.577148
77517;BME280;66628;53.946;27.634;2023-01-19T01:03:24;97309.132812;;;20.840000;34.675781
77517;BME280;66628;53.946;27.634;2023-01-19T01:04:24;97306.593750;;;20.840000;34.608398
77517;BME280;66628;53.946;27.634;2023-01-19T01:05:24;97304.640625;;;20.860001;34.363281
77517;BME280;66628;53.946;27.634;2023-01-19T01:06:24;97310.500000;;;20.860001;34.487305
77517;BME280;66628;53.946;27.634;2023-01-19T01:07:24;97315.007812;;;20.860001;34.655273
77517;BME280;66628;53.946;27.634;2023-01-19T01:08:24;97323.406250;;;20.860001;34.330078
77517;BME280;66628;53.946;27.634;2023-01-19T01:09:24;97320.375000;;;20.850000;34.531250
77517;BME280;66628;53.946;27.634;2023-01-19T01:10:25;97314.601562;;;20.840000;34.653320
77517;BME280;66628;53.946;27.634;2023-01-19T01:11:24;97316.437500;;;20.850000;34.643555
77517;BME280;66628;53.946;27.634;2023-01-19T01:12:24;97326.453125;;;20.850000;34.654297
77517;BME280;66628;53.946;27.634;2023-01-19T01:13:24;97331.937500;;;20.860001;34.733398
77517;BME280;66628;53.946;27.634;2023-01-19T01:14:24;97336.515625;;;20.850000;34.732422
77517;BME280;66628;53.946;27.634;2023-01-19T01:15:24;97337.343750;;;20.850000;34.621094
77517;BME280;66628;53.946;27.634;2023-01-19T01:16:24;97342.968750;;;20.860001;34.700195
77517;BME280;66628;53.946;27.634;2023-01-19T01:17:24;97347.625000;;;20.850000;34.586914
77517;BME280;66628;53.946;27.634;2023-01-19T01:18:24;97351.304688;;;20.840000;34.687500
77517;BME280;66628;53.946;27.634;2023-01-19T01:19:24;97355.468750;;;20.860001;34.553711
77517;BME280;66628;53.946;27.634;2023-01-19T01:20:25;97356.343750;;;20.870001;34.319336
77517;BME280;66628;53.946;27.634;2023-01-19T01:21:24;97363.000000;;;20.870001;34.577148
77517;BME280;66628;53.946;27.634;2023-01-19T01:22:24;97353.937500;;;20.870001;34.554688
77517;BME280;66628;53.946;27.634;2023-01-19T01:23:24;97350.617188;;;20.870001;34.464844
77517;BME280;66628;53.946;27.634;2023-01-19T01:24:24;97358.539062;;;20.870001;34.643555
77517;BME280;66628;53.946;27.634;2023-01-19T01:25:24;97361.328125;;;20.850000;34.721680
77517;BME280;66628;53.946;27.634;2023-01-19T01:26:24;97348.562500;;;20.860001;34.621094
77517;BME280;66628;53.946;27.634;2023-01-19T01:27:24;97353.984375;;;20.860001;34.655273
77517;BME280;66628;53.946;27.634;2023-01-19T01:28:24;97356.953125;;;20.840000;34.732422
77517;BME280;66628;53.946;27.634;2023-01-19T01:29:24;97347.984375;;;20.850000;34.687500
77517;BME280;66628;53.946;27.634;2023-01-19T01:30:24;97357.296875;;;20.850000;34.789062
77517;BME280;66628;53.946;27.634;2023-01-19T01:31:24;97359.671875;;;20.860001;34.811523
77517;BME280;66628;53.946;27.634;2023-01-19T01:32:24;97368.703125;;;20.830000;34.641602
77517;BME280;66628;53.946;27.634;2023-01-19T01:33:24;97367.054688;;;20.840000;34.810547
77517;BME280;66628;53.946;27.634;2023-01-19T01:34:24;97381.710938;;;20.850000;34.789062
77517;BME280;66628;53.946;27.634;2023-01-19T01:35:24;97384.984375;;;20.850000;34.821289
77517;BME280;66628;53.946;27.634;2023-01-19T01:36:24;97382.812500;;;20.860001;34.833984
77517;BME280;66628;53.946;27.634;2023-01-19T01:37:24;97387.218750;;;20.850000;34.901367
77517;BME280;66628;53.946;27.634;2023-01-19T01:38:24;97391.421875;;;20.850000;34.878906
77517;BME280;66628;53.946;27.634;2023-01-19T01:39:25;97389.921875;;;20.879999;34.701172
77517;BME280;66628;53.946;27.634;2023-01-19T01:40:24;97393.984375;;;20.879999;34.701172
77517;BME280;66628;53.946;27.634;2023-01-19T01:41:24;97404.226562;;;20.879999;34.678711
77517;BME280;66628;53.946;27.634;2023-01-19T01:42:25;97407.421875;;;20.889999;34.556641
77517;BME280;66628;53.946;27.634;2023-01-19T01:43:39;97403.656250;;;20.900000;34.613281
77517;BME280;66628;53.946;27.634;2023-01-19T01:46:24;97411.390625;;;20.870001;34.710938
77517;BME280;66628;53.946;27.634;2023-01-19T01:47:28;97415.078125;;;20.879999;34.667969
77517;BME280;66628;53.946;27.634;2023-01-19T01:48:27;97408.101562;;;20.860001;34.542969
77517;BME280;66628;53.946;27.634;2023-01-19T01:49:24;97415.078125;;;20.830000;34.719727
77517;BME280;66628;53.946;27.634;2023-01-19T01:50:25;97412.156250;;;20.840000;34.764648
77517;BME280;66628;53.946;27.634;2023-01-19T01:51:25;97421.359375;;;20.860001;34.700195
77517;BME280;66628;53.946;27.634;2023-01-19T01:52:24;97423.242188;;;20.860001;34.767578
77517;BME280;66628;53.946;27.634;2023-01-19T01:53:24;97424.906250;;;20.860001;34.833984
77517;BME280;66628;53.946;27.634;2023-01-19T01:55:24;97426.781250;;;20.870001;34.958008
77517;BME280;66628;53.946;27.634;2023-01-19T01:56:25;97434.046875;;;20.860001;34.935547
77517;BME280;66628;53.946;27.634;2023-01-19T01:57:26;97445.812500;;;20.860001;34.946289
77517;BME280;66628;53.946;27.634;2023-01-19T01:58:24;97442.265625;;;20.860001;34.890625
77517;BME280;66628;53.946;27.634;2023-01-19T01:59:28;97441.851562;;;20.879999;35.015625
77517;BME280;66628;53.946;27.634;2023-01-19T02:00:24;97445.117188;;;20.870001;34.891602
77517;BME280;66628;53.946;27.634;2023-01-19T02:01:24;97454.875000;;;20.860001;34.923828
77517;BME280;66628;53.946;27.634;2023-01-19T02:02:24;97447.828125;;;20.860001;34.968750
77517;BME280;66628;53.946;27.634;2023-01-19T02:03:24;97466.335938;;;20.870001;34.968750
77517;BME280;66628;53.946;27.634;2023-01-19T02:04:24;97454.781250;;;20.879999;34.690430
77517;BME280;66628;53.946;27.634;2023-01-19T02:05:32;97463.968750;;;20.870001;34.924805
77517;BME280;66628;53.946;27.634;2023-01-19T02:06:24;97468.976562;;;20.879999;35.026367
77517;BME280;66628;53.946;27.634;2023-01-19T02:07:42;97469.484375;;;20.879999;34.970703
77517;BME280;66628;53.946;27.634;2023-01-19T02:08:25;97477.531250;;;20.879999;35.059570
77517;BME280;66628;53.946;27.634;2023-01-19T02:09:24;97475.046875;;;20.870001;35.025391
77517;BME280;66628;53.946;27.634;2023-01-19T02:10:24;97481.968750;;;20.879999;35.026367
77517;BME280;66628;53.946;27.634;2023-01-19T02:11:24;97483.875000;;;20.870001;35.059570
77517;BME280;66628;53.946;27.634;2023-01-19T02:12:24;97494.968750;;;20.879999;35.071289
77517;BME280;66628;53.946;27.634;2023-01-19T02:13:24;97485.421875;;;20.879999;35.082031
77517;BME280;66628;53.946;27.634;2023-01-19T02:14:24;97495.968750;;;20.879999;35.071289
77517;BME280;66628;53.946;27.634;2023-01-19T02:15:24;97500.343750;;;20.879999;35.149414
77517;BME280;66628;53.946;27.634;2023-01-19T02:16:24;97489.359375;;;20.879999;35.104492
77517;BME280;66628;53.946;27.634;2023-01-19T02:17:24;97501.484375;;;20.889999;35.216797
77517;BME280;66628;53.946;27.634;2023-01-19T02:18:26;97495.796875;;;20.879999;35.104492
77517;BME280;66628;53.946;27.634;2023-01-19T02:19:26;97499.062500;;;20.879999;35.126953
77517;BME280;66628;53.946;27.634;2023-01-19T02:20:24;97503.062500;;;20.889999;35.093750
77517;BME280;66628;53.946;27.634;2023-01-19T02:21:30;97503.789062;;;20.879999;35.082031
77517;BME280;66628;53.946;27.634;2023-01-19T02:22:25;97507.218750;;;20.879999;35.059570
77517;BME280;66628;53.946;27.634;2023-01-19T02:23:43;97511.679688;;;20.889999;35.072266
77517;BME280;66628;53.946;27.634;2023-01-19T02:24:24;97515.359375;;;20.889999;35.027344
77517;BME280;66628;53.946;27.634;2023-01-19T02:25:24;97511.062500;;;20.889999;35.117188
77517;BME280;66628;53.946;27.634;2023-01-19T02:26:27;97516.539062;;;20.900000;35.117188
77517;BME280;66628;53.946;27.634;2023-01-19T02:27:24;97506.445312;;;20.900000;35.107422
77517;BME280;66628;53.946;27.634;2023-01-19T02:28:24;97508.546875;;;20.910000;34.960938
77517;BME280;66628;53.946;27.634;2023-01-19T02:29:24;97500.796875;;;20.900000;34.983398
77517;BME280;66628;53.946;27.634;2023-01-19T02:30:24;97506.609375;;;20.889999;34.993164
77517;BME280;66628;53.946;27.634;2023-01-19T02:31:24;97504.640625;;;20.889999;35.048828
77517;BME280;66628;53.946;27.634;2023-01-19T02:32:24;97505.156250;;;20.889999;35.093750
77517;BME280;66628;53.946;27.634;2023-01-19T02:33:24;97515.000000;;;20.879999;35.093750
77517;BME280;66628;53.946;27.634;2023-01-19T02:34:24;97510.171875;;;20.870001;35.137695
77517;BME280;66628;53.946;27.634;2023-01-19T02:35:24;97512.078125;;;20.889999;35.117188
77517;BME280;66628;53.946;27.634;2023-01-19T02:36:25;97517.367188;;;20.879999;35.126953
77517;BME280;66628;53.946;27.634;2023-01-19T02:37:24;97521.171875;;;20.889999;35.206055
77517;BME280;66628;53.946;27.634;2023-01-19T02:38:24;97526.734375;;;20.889999;35.217773
77517;BME280;66628;53.946;27.634;2023-01-19T02:39:26;97523.750000;;;20.879999;35.183594
77517;BME280;66628;53.946;27.634;2023-01-19T02:40:24;97526.250000;;;20.889999;34.959961
77517;BME280;66628;53.946;27.634;2023-01-19T02:41:25;97531.953125;;;20.900000;35.061523
77517;BME280;66628;53.946;27.634;2023-01-19T02:42:28;97543.835938;;;20.889999;35.138672
77517;BME280;66628;53.946;27.634;2023-01-19T02:43:24;97547.359375;;;20.900000;35.184570
77517;BME280;66628;53.946;27.634;2023-01-19T02:44:24;97562.648438;;;20.879999;35.126953
77517;BME280;66628;53.946;27.634;2023-01-19T02:45:24;97561.539062;;;20.879999;35.183594
77517;BME280;66628;53.946;27.634;2023-01-19T02:46:24;97567.859375;;;20.879999;35.239258
77517;BME280;66628;53.946;27.634;2023-01-19T02:47:24;97565.671875;;;20.879999;35.227539
77517;BME280;66628;53.946;27.634;2023-01-19T02:48:24;97574.593750;;;20.879999;35.194336
77517;BME280;66628;53.946;27.634;2023-01-19T02:49:26;97572.062500;;;20.889999;35.150391
77517;BME280;66628;53.946;27.634;2023-01-19T02:50:42;97578.273438;;;20.889999;35.138672
77517;BME280;66628;53.946;27.634;2023-01-19T02:51:24;97568.515625;;;20.889999;35.171875
77517;BME280;66628;53.946;27.634;2023-01-19T02:52:24;97572.625000;;;20.889999;35.195312
77517;BME280;66628;53.946;27.634;2023-01-19T02:55:25;97589.515625;;;20.900000;35.117188
77517;BME280;66628;53.946;27.634;2023-01-19T02:56:28;97586.546875;;;20.900000;35.218750
77517;BME280;66628;53.946;27.634;2023-01-19T02:59:28;97560.656250;;;20.900000;35.229492
77517;BME280;66628;53.946;27.634;2023-01-19T03:00:27;97582.531250;;;20.900000;35.241211
77517;BME280;66628;53.946;27.634;2023-01-19T03:01:33;97595.531250;;;20.900000;34.950195
77517;BME280;66628;53.946;27.634;2023-01-19T03:06:31;97583.187500;;;20.910000;35.128906
77517;BME280;66628;53.946;27.634;2023-01-19T03:11:24;97624.640625;;;20.930000;35.276367
77517;BME280;66628;53.946;27.634;2023-01-19T03:12:30;97620.101562;;;20.940001;35.097656
77517;BME280;66628;53.946;27.634;2023-01-19T03:14:24;97621.843750;;;20.930000;35.265625
77517;BME280;66628;53.946;27.634;2023-01-19T03:15:26;97631.734375;;;20.930000;35.253906
77517;BME280;66628;53.946;27.634;2023-01-19T03:17:24;97641.187500;;;20.930000;35.231445
77517;BME280;66628;53.946;27.634;2023-01-19T03:18:24;97641.671875;;;20.930000;35.175781
77517;BME280;66628;53.946;27.634;2023-01-19T03:19:25;97648.320312;;;20.930000;35.153320
77517;BME280;66628;53.946;27.634;2023-01-19T03:20:24;97641.054688;;;20.920000;35.186523
77517;BME280;66628;53.946;27.634;2023-01-19T03:21:25;97638.804688;;;20.910000;35.218750
77517;BME280;66628;53.946;27.634;2023-01-19T03:22:25;97642.171875;;;20.920000;35.186523
77517;BME280;66628;53.946;27.634;2023-01-19T03:23:25;97643.750000;;;20.910000;35.252930
77517;BME280;66628;53.946;27.634;2023-01-19T03:24:24;97647.406250;;;20.930000;35.231445
77517;BME280;66628;53.946;27.634;2023-01-19T03:25:24;97651.328125;;;20.920000;35.208984
77517;BME280;66628;53.946;27.634;2023-01-19T03:26:25;97660.773438;;;20.920000;35.231445
77517;BME280;66628;53.946;27.634;2023-01-19T03:27:24;97666.828125;;;20.930000;35.208984
77517;BME280;66628;53.946;27.634;2023-01-19T03:28:24;97663.507812;;;20.940001;35.254883
77517;BME280;66628;53.946;27.634;2023-01-19T03:29:26;97671.390625;;;20.940001;35.243164
77517;BME280;66628;53.946;27.634;2023-01-19T03:30:27;97675.281250;;;20.940001;35.243164
77517;BME280;66628;53.946;27.634;2023-01-19T03:31:25;97674.187500;;;20.940001;35.232422
77517;BME280;66628;53.946;27.634;2023-01-19T03:32:28;97680.875000;;;20.940001;35.075195
77517;BME280;66628;53.946;27.634;2023-01-19T03:33:28;97676.156250;;;20.940001;35.199219
77517;BME280;66628;53.946;27.634;2023-01-19T03:34:24;97676.609375;;;20.950001;35.266602
77517;BME280;66628;53.946;27.634;2023-01-19T03:35:24;97670.093750;;;20.940001;35.289062
77517;BME280;66628;53.946;27.634;2023-01-19T03:37:24;97679.015625;;;20.940001;35.378906
77517;BME280;66628;53.946;27.634;2023-01-19T03:38:24;97683.742188;;;20.940001;35.367188
77517;BME280;66628;53.946;27.634;2023-01-19T03:39:24;97685.867188;;;20.930000;35.367188
77517;BME280;66628;53.946;27.634;2023-01-19T03:40:27;97689.562500;;;20.950001;35.345703
77517;BME280;66628;53.946;27.634;2023-01-19T03:41:24;97691.781250;;;20.940001;35.367188
77517;BME280;66628;53.946;27.634;2023-01-19T03:42:24;97696.812500;;;20.940001;35.377930
77517;BME280;66628;53.946;27.634;2023-01-19T03:43:24;97689.109375;;;20.940001;35.412109
77517;BME280;66628;53.946;27.634;2023-01-19T03:44:24;97691.734375;;;20.940001;35.445312
77517;BME280;66628;53.946;27.634;2023-01-19T03:45:24;97690.812500;;;20.940001;35.422852
77517;BME280;66628;53.946;27.634;2023-01-19T03:46:24;97692.562500;;;20.940001;35.479492
77517;BME280;66628;53.946;27.634;2023-01-19T03:47:24;97690.085938;;;20.950001;35.536133
77517;BME280;66628;53.946;27.634;2023-01-19T03:48:24;97686.062500;;;20.950001;35.491211
77517;BME280;66628;53.946;27.634;2023-01-19T03:49:24;97691.406250;;;20.950001;35.480469
77517;BME280;66628;53.946;27.634;2023-01-19T03:50:24;97692.937500;;;20.950001;35.458008
77517;BME280;66628;53.946;27.634;2023-01-19T03:51:24;97693.023438;;;20.950001;35.480469
77517;BME280;66628;53.946;27.634;2023-01-19T03:52:27;97690.617188;;;20.959999;35.458008
77517;BME280;66628;53.946;27.634;2023-01-19T03:53:24;97694.031250;;;20.959999;35.469727
77517;BME280;66628;53.946;27.634;2023-01-19T03:54:24;97693.593750;;;20.959999;35.447266
77517;BME280;66628;53.946;27.634;2023-01-19T03:55:24;97693.851562;;;20.950001;35.458008
77517;BME280;66628;53.946;27.634;2023-01-19T03:56:24;97694.250000;;;20.950001;35.435547
77517;BME280;66628;53.946;27.634;2023-01-19T03:57:24;97702.125000;;;20.950001;35.458008
77517;BME280;66628;53.946;27.634;2023-01-19T03:58:24;97704.796875;;;20.959999;35.447266
77517;BME280;66628;53.946;27.634;2023-01-19T03:59:24;97703.437500;;;20.959999;35.502930
77517;BME280;66628;53.946;27.634;2023-01-19T04:00:24;97704.007812;;;20.959999;35.526367
77517;BME280;66628;53.946;27.634;2023-01-19T04:01:24;97712.406250;;;20.959999;35.526367
77517;BME280;66628;53.946;27.634;2023-01-19T04:02:24;97715.445312;;;20.969999;35.503906
77517;BME280;66628;53.946;27.634;2023-01-19T04:03:24;97717.023438;;;20.969999;35.481445
77517;BME280;66628;53.946;27.634;2023-01-19T04:04:24;97725.210938;;;20.969999;35.459961
77517;BME280;66628;53.946;27.634;2023-01-19T04:05:24;97718.562500;;;20.969999;35.494141
77517;BME280;66628;53.946;27.634;2023-01-19T04:06:24;97725.609375;;;20.980000;35.539062
77517;BME280;66628;53.946;27.634;2023-01-19T04:07:24;97729.015625;;;20.969999;35.560547
77517;BME280;66628;53.946;27.634;2023-01-19T04:08:24;97736.328125;;;20.980000;35.516602
77517;BME280;66628;53.946;27.634;2023-01-19T04:09:24;97732.562500;;;20.980000;35.527344
77517;BME280;66628;53.946;27.634;2023-01-19T04:10:24;97734.843750;;;20.969999;35.639648
77517;BME280;66628;53.946;27.634;2023-01-19T04:11:24;97734.507812;;;20.990000;35.392578
77517;BME280;66628;53.946;27.634;2023-01-19T04:12:24;97737.250000;;;20.980000;35.281250
77517;BME280;66628;53.946;27.634;2023-01-19T04:13:24;97733.968750;;;20.980000;35.303711
77517;BME280;66628;53.946;27.634;2023-01-19T04:14:24;97737.171875;;;20.990000;35.270508
77517;BME280;66628;53.946;27.634;2023-01-19T04:15:24;97734.859375;;;21.000000;35.259766
77517;BME280;66628;53.946;27.634;2023-01-19T04:16:24;97738.343750;;;20.980000;35.213867
77517;BME280;66628;53.946;27.634;2023-01-19T04:17:24;97732.078125;;;20.980000;35.224609
77517;BME280;66628;53.946;27.634;2023-01-19T04:18:24;97732.390625;;;20.980000;34.933594
77517;BME280;66628;53.946;27.634;2023-01-19T04:19:24;97736.781250;;;20.990000;35.045898
77517;BME280;66628;53.946;27.634;2023-01-19T04:20:24;97742.328125;;;20.980000;34.978516
77517;BME280;66628;53.946;27.634;2023-01-19T04:21:24;97745.125000;;;20.980000;35.157227
77517;BME280;66628;53.946;27.634;2023-01-19T04:22:23;97748.101562;;;20.980000;35.124023
77517;BME280;66628;53.946;27.634;2023-01-19T04:23:24;97751.781250;;;20.980000;35.224609
77517;BME280;66628;53.946;27.634;2023-01-19T04:24:24;97751.664062;;;20.990000;35.224609
77517;BME280;66628;53.946;27.634;2023-01-19T04:25:24;97758.078125;;;20.969999;35.291016
77517;BME280;66628;53.946;27.634;2023-01-19T04:26:24;97759.421875;;;20.969999;35.313477
77517;BME280;66628;53.946;27.634;2023-01-19T04:27:24;97766.960938;;;20.980000;35.247070
77517;BME280;66628;53.946;27.634;2023-01-19T04:28:24;97770.062500;;;20.969999;35.291016
77517;BME280;66628;53.946;27.634;2023-01-19T04:29:24;97774.617188;;;20.980000;35.236328
77517;BME280;66628;53.946;27.634;2023-01-19T04:30:24;97774.531250;;;20.980000;35.224609
77517;BME280;66628;53.946;27.634;2023-01-19T04:31:24;97778.484375;;;20.990000;35.225586
77517;BME280;66628;53.946;27.634;2023-01-19T04:32:24;97775.757812;;;20.980000;35.202148
77517;BME280;66628;53.946;27.634;2023-01-19T04:33:24;97780.484375;;;20.980000;35.179688
77517;BME280;66628;53.946;27.634;2023-01-19T04:34:24;97783.765625;;;20.980000;35.269531
77517;BME280;66628;53.946;27.634;2023-01-19T04:35:23;97786.234375;;;20.990000;35.259766
77517;BME280;66628;53.946;27.634;2023-01-19T04:36:23;97788.210938;;;20.990000;35.282227
77517;BME280;66628;53.946;27.634;2023-01-19T04:37:23;97798.359375;;;20.990000;35.282227
77517;BME280;66628;53.946;27.634;2023-01-19T04:38:24;97798.093750;;;20.990000;35.248047
77517;BME280;66628;53.946;27.634;2023-01-19T04:39:24;97807.242188;;;20.990000;35.292969
77517;BME280;66628;53.946;27.634;2023-01-19T04:40:24;97810.609375;;;20.990000;35.249023
77517;BME280;66628;53.946;27.634;2023-01-19T04:41:24;97818.531250;;;21.000000;35.259766
77517;BME280;66628;53.946;27.634;2023-01-19T04:42:24;97821.031250;;;20.990000;35.248047
77517;BME280;66628;53.946;27.634;2023-01-19T04:43:24;97820.289062;;;21.000000;35.237305
77517;BME280;66628;53.946;27.634;2023-01-19T04:44:24;97824.312500;;;21.000000;35.159180
77517;BME280;66628;53.946;27.634;2023-01-19T04:45:24;97827.421875;;;20.990000;35.148438
77517;BME280;66628;53.946;27.634;2023-01-19T04:46:24;97828.906250;;;21.000000;35.249023
77517;BME280;66628;53.946;27.634;2023-01-19T04:47:23;97829.828125;;;20.990000;35.214844
77517;BME280;66628;53.946;27.634;2023-01-19T04:48:24;97826.843750;;;20.990000;35.248047